sensor_id;sensor_type;location;lat;lon;timestamp;temperature;humidity
6206;DHT22;3136;48.788;9.772;2023-06-22T00:02:24;18.30;99.90
6206;DHT22;3136;48.788;9.772;2023-06-22T00:04:50;18.30;99.90
6206;DHT22;3136;48.788;9.772;2023-06-22T00:07:16;18.30;1.00
6206;DHT22;3136;48.788;9.772;2023-06-22T00:09:41;18.30;1.00
6206;DHT22;3136;48.788;9.772;2023-06-22T00:12:07;18.30;1.00
6206;DHT22;3136;48.788;9.772;2023-06-22T00:14:33;18.20;1.00
6206;DHT22;3136;48.788;9.772;2023-06-22T00:16:58;18.20;1.00
6206;DHT22;3136;48.788;9.772;2023-06-22T00:19:24;18.20;1.00
6206;DHT22;3136;48.788;9.772;2023-06-22T00:21:50;18.20;1.00
6206;DHT22;3136;48.788;9.772;2023-06-22T00:24:21;18.10;15.20
6206;DHT22;3136;48.788;9.772;2023-06-22T00:26:50;18.10;1.00
6206;DHT22;3136;48.788;9.772;2023-06-22T00:29:16;18.20;1.00
6206;DHT22;3136;48.788;9.772;2023-06-22T00:31:42;18.20;99.90
6206;DHT22;3136;48.788;9.772;2023-06-22T00:34:08;18.10;99.90
6206;DHT22;3136;48.788;9.772;2023-06-22T00:36:34;18.00;1.00
6206;DHT22;3136;48.788;9.772;2023-06-22T00:39:00;18.10;33.90
6206;DHT22;3136;48.788;9.772;2023-06-22T00:41:26;18.30;1.00
6206;DHT22;3136;48.788;9.772;2023-06-22T00:43:54;18.00;99.90
6206;DHT22;3136;48.788;9.772;2023-06-22T00:46:20;17.90;1.30
6206;DHT22;3136;48.788;9.772;2023-06-22T00:48:46;17.90;83.60
6206;DHT22;3136;48.788;9.772;2023-06-22T00:51:11;17.90;99.90
6206;DHT22;3136;48.788;9.772;2023-06-22T00:53:37;17.90;1.00
6206;DHT22;3136;48.788;9.772;2023-06-22T00:56:03;17.90;1.00
6206;DHT22;3136;48.788;9.772;2023-06-22T00:58:31;17.90;1.00
6206;DHT22;3136;48.788;9.772;2023-06-22T01:00:57;17.80;1.00
6206;DHT22;3136;48.788;9.772;2023-06-22T01:03:22;17.80;1.00
6206;DHT22;3136;48.788;9.772;2023-06-22T01:05:50;17.70;1.00
6206;DHT22;3136;48.788;9.772;2023-06-22T01:08:31;18.00;1.00
6206;DHT22;3136;48.788;9.772;2023-06-22T01:11:19;17.70;1.00
6206;DHT22;3136;48.788;9.772;2023-06-22T01:16:32;17.60;99.90
6206;DHT22;3136;48.788;9.772;2023-06-22T01:19:02;17.60;99.90
6206;DHT22;3136;48.788;9.772;2023-06-22T01:21:31;17.60;99.90
6206;DHT22;3136;48.788;9.772;2023-06-22T01:24:15;17.50;1.00
6206;DHT22;3136;48.788;9.772;2023-06-22T01:26:56;17.50;1.00
6206;DHT22;3136;48.788;9.772;2023-06-22T01:29:24;17.40;1.00
6206;DHT22;3136;48.788;9.772;2023-06-22T01:31:52;17.40;1.00
6206;DHT22;3136;48.788;9.772;2023-06-22T01:34:19;17.40;1.00
6206;DHT22;3136;48.788;9.772;2023-06-22T01:36:45;18.10;1.00
6206;DHT22;3136;48.788;9.772;2023-06-22T01:39:11;17.40;99.90
6206;DHT22;3136;48.788;9.772;2023-06-22T01:41:38;17.40;1.00
6206;DHT22;3136;48.788;9.772;2023-06-22T01:44:05;17.60;1.00
6206;DHT22;3136;48.788;9.772;2023-06-22T01:46:35;17.30;99.90
6206;DHT22;3136;48.788;9.772;2023-06-22T01:49:02;17.40;1.00
6206;DHT22;3136;48.788;9.772;2023-06-22T01:51:28;17.30;74.60
6206;DHT22;3136;48.788;9.772;2023-06-22T01:53:54;17.30;1.00
6206;DHT22;3136;48.788;9.772;2023-06-22T01:56:19;17.40;43.60
6206;DHT22;3136;48.788;9.772;2023-06-22T01:58:53;17.40;1.00
6206;DHT22;3136;48.788;9.772;2023-06-22T02:01:26;17.60;99.90
6206;DHT22;3136;48.788;9.772;2023-06-22T02:04:13;17.30;99.90
6206;DHT22;3136;48.788;9.772;2023-06-22T02:06:42;17.40;1.00
6206;DHT22;3136;48.788;9.772;2023-06-22T02:09:16;17.30;11.50
6206;DHT22;3136;48.788;9.772;2023-06-22T02:11:44;17.30;1.00
6206;DHT22;3136;48.788;9.772;2023-06-22T02:14:12;17.30;99.90
6206;DHT22;3136;48.788;9.772;2023-06-22T02:16:38;17.40;99.90
6206;DHT22;3136;48.788;9.772;2023-06-22T02:19:04;17.40;1.00
6206;DHT22;3136;48.788;9.772;2023-06-22T02:21:31;17.30;1.00
6206;DHT22;3136;48.788;9.772;2023-06-22T02:23:57;17.30;99.90
6206;DHT22;3136;48.788;9.772;2023-06-22T02:26:24;17.10;1.00
6206;DHT22;3136;48.788;9.772;2023-06-22T02:28:50;17.20;99.90
6206;DHT22;3136;48.788;9.772;2023-06-22T02:31:16;17.10;22.20
6206;DHT22;3136;48.788;9.772;2023-06-22T02:33:41;17.10;99.90
6206;DHT22;3136;48.788;9.772;2023-06-22T02:36:09;17.20;99.90
6206;DHT22;3136;48.788;9.772;2023-06-22T02:38:35;17.10;1.00
6206;DHT22;3136;48.788;9.772;2023-06-22T02:41:02;17.10;1.00
6206;DHT22;3136;48.788;9.772;2023-06-22T02:43:27;17.50;1.00
6206;DHT22;3136;48.788;9.772;2023-06-22T02:45:53;17.60;1.00
6206;DHT22;3136;48.788;9.772;2023-06-22T02:48:19;17.00;99.90
6206;DHT22;3136;48.788;9.772;2023-06-22T02:50:44;17.00;99.90
6206;DHT22;3136;48.788;9.772;2023-06-22T02:53:10;17.00;1.00
6206;DHT22;3136;48.788;9.772;2023-06-22T02:55:35;17.00;1.00
6206;DHT22;3136;48.788;9.772;2023-06-22T02:58:01;17.00;1.00
6206;DHT22;3136;48.788;9.772;2023-06-22T03:00:30;17.00;1.00
6206;DHT22;3136;48.788;9.772;2023-06-22T03:02:56;17.10;1.00
6206;DHT22;3136;48.788;9.772;2023-06-22T03:05:22;16.90;99.90
6206;DHT22;3136;48.788;9.772;2023-06-22T03:07:48;16.80;99.90
6206;DHT22;3136;48.788;9.772;2023-06-22T03:10:14;16.80;99.90
6206;DHT22;3136;48.788;9.772;2023-06-22T03:12:41;16.80;1.00
6206;DHT22;3136;48.788;9.772;2023-06-22T03:15:09;16.70;1.00
6206;DHT22;3136;48.788;9.772;2023-06-22T03:17:35;16.70;1.00
6206;DHT22;3136;48.788;9.772;2023-06-22T03:20:02;16.70;1.00
6206;DHT22;3136;48.788;9.772;2023-06-22T03:22:37;16.70;1.00
6206;DHT22;3136;48.788;9.772;2023-06-22T03:25:03;16.70;99.90
6206;DHT22;3136;48.788;9.772;2023-06-22T03:27:29;16.70;99.90
6206;DHT22;3136;48.788;9.772;2023-06-22T03:29:57;16.80;99.90
6206;DHT22;3136;48.788;9.772;2023-06-22T03:32:23;17.20;99.90
6206;DHT22;3136;48.788;9.772;2023-06-22T03:34:48;16.70;1.00
6206;DHT22;3136;48.788;9.772;2023-06-22T03:37:14;16.70;1.00
6206;DHT22;3136;48.788;9.772;2023-06-22T03:39:41;16.60;1.00
6206;DHT22;3136;48.788;9.772;2023-06-22T03:42:07;16.70;99.90
6206;DHT22;3136;48.788;9.772;2023-06-22T03:44:32;16.60;99.90
6206;DHT22;3136;48.788;9.772;2023-06-22T03:46:58;16.60;99.90
6206;DHT22;3136;48.788;9.772;2023-06-22T03:49:24;16.60;1.00
6206;DHT22;3136;48.788;9.772;2023-06-22T03:51:49;16.70;1.00
6206;DHT22;3136;48.788;9.772;2023-06-22T03:54:15;16.60;1.00
6206;DHT22;3136;48.788;9.772;2023-06-22T03:56:40;17.00;1.00
6206;DHT22;3136;48.788;9.772;2023-06-22T03:59:06;16.60;1.00
6206;DHT22;3136;48.788;9.772;2023-06-22T04:01:31;16.60;45.70
6206;DHT22;3136;48.788;9.772;2023-06-22T04:03:57;16.60;99.90
6206;DHT22;3136;48.788;9.772;2023-06-22T04:06:23;16.60;99.90
6206;DHT22;3136;48.788;9.772;2023-06-22T04:08:48;16.70;99.90
6206;DHT22;3136;48.788;9.772;2023-06-22T04:11:17;16.70;99.90
6206;DHT22;3136;48.788;9.772;2023-06-22T04:13:43;16.90;1.00
6206;DHT22;3136;48.788;9.772;2023-06-22T04:16:09;16.80;1.00
6206;DHT22;3136;48.788;9.772;2023-06-22T04:18:34;16.80;1.00
6206;DHT22;3136;48.788;9.772;2023-06-22T04:21:01;16.90;1.00
6206;DHT22;3136;48.788;9.772;2023-06-22T04:23:27;16.90;1.00
6206;DHT22;3136;48.788;9.772;2023-06-22T04:25:53;17.00;1.00
6206;DHT22;3136;48.788;9.772;2023-06-22T04:28:18;17.00;1.00
6206;DHT22;3136;48.788;9.772;2023-06-22T04:30:44;17.70;1.00
6206;DHT22;3136;48.788;9.772;2023-06-22T04:33:16;17.20;1.00
6206;DHT22;3136;48.788;9.772;2023-06-22T04:35:45;17.20;1.00
6206;DHT22;3136;48.788;9.772;2023-06-22T04:38:12;17.30;1.00
6206;DHT22;3136;48.788;9.772;2023-06-22T04:40:38;17.30;1.00
6206;DHT22;3136;48.788;9.772;2023-06-22T04:43:04;17.40;1.00
6206;DHT22;3136;48.788;9.772;2023-06-22T04:45:32;17.40;1.00
6206;DHT22;3136;48.788;9.772;2023-06-22T04:47:57;17.50;1.00
6206;DHT22;3136;48.788;9.772;2023-06-22T04:50:23;17.50;99.90
6206;DHT22;3136;48.788;9.772;2023-06-22T04:52:49;17.60;99.90
6206;DHT22;3136;48.788;9.772;2023-06-22T04:55:15;17.80;99.90
6206;DHT22;3136;48.788;9.772;2023-06-22T04:57:46;17.80;1.00
6206;DHT22;3136;48.788;9.772;2023-06-22T05:00:15;17.90;1.00
6206;DHT22;3136;48.788;9.772;2023-06-22T05:02:44;18.10;1.00
6206;DHT22;3136;48.788;9.772;2023-06-22T05:05:10;18.20;1.00
6206;DHT22;3136;48.788;9.772;2023-06-22T05:07:42;18.30;1.00
6206;DHT22;3136;48.788;9.772;2023-06-22T05:10:12;18.50;99.90
6206;DHT22;3136;48.788;9.772;2023-06-22T05:12:38;18.60;1.00
6206;DHT22;3136;48.788;9.772;2023-06-22T05:15:05;18.70;1.00
6206;DHT22;3136;48.788;9.772;2023-06-22T05:17:32;18.80;1.00
6206;DHT22;3136;48.788;9.772;2023-06-22T05:19:57;19.10;1.00
6206;DHT22;3136;48.788;9.772;2023-06-22T05:22:23;19.20;1.00
6206;DHT22;3136;48.788;9.772;2023-06-22T05:24:48;19.20;1.00
6206;DHT22;3136;48.788;9.772;2023-06-22T05:27:14;19.40;97.10
6206;DHT22;3136;48.788;9.772;2023-06-22T05:29:40;19.50;1.00
6206;DHT22;3136;48.788;9.772;2023-06-22T05:32:06;19.70;1.00
6206;DHT22;3136;48.788;9.772;2023-06-22T05:34:32;19.80;1.00
6206;DHT22;3136;48.788;9.772;2023-06-22T05:36:58;19.80;99.90
6206;DHT22;3136;48.788;9.772;2023-06-22T05:39:26;19.90;1.00
6206;DHT22;3136;48.788;9.772;2023-06-22T05:41:52;20.20;1.00
6206;DHT22;3136;48.788;9.772;2023-06-22T05:44:18;20.30;1.00
6206;DHT22;3136;48.788;9.772;2023-06-22T05:46:44;20.40;99.90
6206;DHT22;3136;48.788;9.772;2023-06-22T05:49:12;20.50;99.90
6206;DHT22;3136;48.788;9.772;2023-06-22T05:51:38;20.60;99.90
6206;DHT22;3136;48.788;9.772;2023-06-22T05:54:04;20.80;99.90
6206;DHT22;3136;48.788;9.772;2023-06-22T05:56:29;20.80;99.90
6206;DHT22;3136;48.788;9.772;2023-06-22T05:58:55;20.90;99.90
6206;DHT22;3136;48.788;9.772;2023-06-22T06:01:21;21.00;99.90
6206;DHT22;3136;48.788;9.772;2023-06-22T06:03:46;21.10;99.90
6206;DHT22;3136;48.788;9.772;2023-06-22T06:06:12;21.10;99.90
6206;DHT22;3136;48.788;9.772;2023-06-22T06:08:38;21.30;99.90
6206;DHT22;3136;48.788;9.772;2023-06-22T06:11:04;21.30;99.90
6206;DHT22;3136;48.788;9.772;2023-06-22T06:13:29;21.40;99.90
6206;DHT22;3136;48.788;9.772;2023-06-22T06:15:56;21.50;99.90
6206;DHT22;3136;48.788;9.772;2023-06-22T06:18:22;21.60;99.90
6206;DHT22;3136;48.788;9.772;2023-06-22T06:20:48;21.70;99.90
6206;DHT22;3136;48.788;9.772;2023-06-22T06:23:13;21.80;99.90
6206;DHT22;3136;48.788;9.772;2023-06-22T06:25:39;21.80;99.90
6206;DHT22;3136;48.788;9.772;2023-06-22T06:28:04;21.90;99.90
6206;DHT22;3136;48.788;9.772;2023-06-22T06:30:30;22.00;99.90
6206;DHT22;3136;48.788;9.772;2023-06-22T06:32:56;22.10;99.90
6206;DHT22;3136;48.788;9.772;2023-06-22T06:35:22;22.20;99.90
6206;DHT22;3136;48.788;9.772;2023-06-22T06:37:49;22.30;99.90
6206;DHT22;3136;48.788;9.772;2023-06-22T06:40:17;22.30;99.90
6206;DHT22;3136;48.788;9.772;2023-06-22T06:42:45;22.40;99.90
6206;DHT22;3136;48.788;9.772;2023-06-22T06:45:12;22.50;99.90
6206;DHT22;3136;48.788;9.772;2023-06-22T06:47:38;22.60;99.90
6206;DHT22;3136;48.788;9.772;2023-06-22T06:50:05;22.70;99.90
6206;DHT22;3136;48.788;9.772;2023-06-22T06:52:30;22.80;99.90
6206;DHT22;3136;48.788;9.772;2023-06-22T06:54:56;22.80;99.90
6206;DHT22;3136;48.788;9.772;2023-06-22T06:57:22;22.90;99.90
6206;DHT22;3136;48.788;9.772;2023-06-22T06:59:48;23.00;99.90
6206;DHT22;3136;48.788;9.772;2023-06-22T07:02:15;23.20;99.90
6206;DHT22;3136;48.788;9.772;2023-06-22T07:04:40;23.30;99.90
6206;DHT22;3136;48.788;9.772;2023-06-22T07:07:06;23.40;99.90
6206;DHT22;3136;48.788;9.772;2023-06-22T07:09:32;23.50;99.90
6206;DHT22;3136;48.788;9.772;2023-06-22T07:11:58;23.70;99.90
6206;DHT22;3136;48.788;9.772;2023-06-22T07:14:23;23.80;99.90
6206;DHT22;3136;48.788;9.772;2023-06-22T07:16:49;23.80;99.90
6206;DHT22;3136;48.788;9.772;2023-06-22T07:19:15;24.00;99.90
6206;DHT22;3136;48.788;9.772;2023-06-22T07:21:40;24.10;99.90
6206;DHT22;3136;48.788;9.772;2023-06-22T07:24:06;24.20;99.90
6206;DHT22;3136;48.788;9.772;2023-06-22T07:26:33;24.30;95.80
6206;DHT22;3136;48.788;9.772;2023-06-22T07:28:58;24.40;94.90
6206;DHT22;3136;48.788;9.772;2023-06-22T07:31:25;24.40;94.20
6206;DHT22;3136;48.788;9.772;2023-06-22T07:33:51;24.60;93.10
6206;DHT22;3136;48.788;9.772;2023-06-22T07:36:17;24.60;91.70
6206;DHT22;3136;48.788;9.772;2023-06-22T07:38:43;24.70;89.10
6206;DHT22;3136;48.788;9.772;2023-06-22T07:41:08;24.90;87.90
6206;DHT22;3136;48.788;9.772;2023-06-22T07:43:34;24.90;89.20
6206;DHT22;3136;48.788;9.772;2023-06-22T07:46:03;25.10;86.10
6206;DHT22;3136;48.788;9.772;2023-06-22T07:48:29;25.20;77.30
6206;DHT22;3136;48.788;9.772;2023-06-22T07:50:54;25.40;73.10
6206;DHT22;3136;48.788;9.772;2023-06-22T07:53:21;25.50;71.40
6206;DHT22;3136;48.788;9.772;2023-06-22T07:55:47;25.70;68.90
6206;DHT22;3136;48.788;9.772;2023-06-22T07:58:13;25.80;68.70
6206;DHT22;3136;48.788;9.772;2023-06-22T08:00:39;25.80;69.30
6206;DHT22;3136;48.788;9.772;2023-06-22T08:03:04;25.80;66.00
6206;DHT22;3136;48.788;9.772;2023-06-22T08:05:31;26.00;63.10
6206;DHT22;3136;48.788;9.772;2023-06-22T08:07:57;25.90;63.00
6206;DHT22;3136;48.788;9.772;2023-06-22T08:10:22;26.10;61.10
6206;DHT22;3136;48.788;9.772;2023-06-22T08:12:48;26.10;60.10
6206;DHT22;3136;48.788;9.772;2023-06-22T08:15:14;26.30;58.90
6206;DHT22;3136;48.788;9.772;2023-06-22T08:17:40;26.40;58.50
6206;DHT22;3136;48.788;9.772;2023-06-22T08:20:06;26.40;80.20
6206;DHT22;3136;48.788;9.772;2023-06-22T08:22:35;26.50;54.50
6206;DHT22;3136;48.788;9.772;2023-06-22T08:25:02;26.60;54.60
6206;DHT22;3136;48.788;9.772;2023-06-22T08:27:30;26.60;51.40
6206;DHT22;3136;48.788;9.772;2023-06-22T08:29:57;26.70;51.30
6206;DHT22;3136;48.788;9.772;2023-06-22T08:32:24;26.90;51.20
6206;DHT22;3136;48.788;9.772;2023-06-22T08:34:52;27.10;50.20
6206;DHT22;3136;48.788;9.772;2023-06-22T08:37:18;27.20;47.60
6206;DHT22;3136;48.788;9.772;2023-06-22T08:39:44;27.30;47.70
6206;DHT22;3136;48.788;9.772;2023-06-22T08:42:09;27.40;47.50
6206;DHT22;3136;48.788;9.772;2023-06-22T08:44:35;27.50;48.00
6206;DHT22;3136;48.788;9.772;2023-06-22T08:47:00;27.70;47.00
6206;DHT22;3136;48.788;9.772;2023-06-22T08:49:26;27.80;46.40
6206;DHT22;3136;48.788;9.772;2023-06-22T08:51:51;27.80;42.90
6206;DHT22;3136;48.788;9.772;2023-06-22T08:54:19;27.80;43.40
6206;DHT22;3136;48.788;9.772;2023-06-22T08:56:44;27.70;41.50
6206;DHT22;3136;48.788;9.772;2023-06-22T08:59:10;27.70;41.80
6206;DHT22;3136;48.788;9.772;2023-06-22T09:01:36;27.80;41.00
6206;DHT22;3136;48.788;9.772;2023-06-22T09:04:01;27.80;39.60
6206;DHT22;3136;48.788;9.772;2023-06-22T09:06:27;27.90;38.90
6206;DHT22;3136;48.788;9.772;2023-06-22T09:08:52;28.10;38.00
6206;DHT22;3136;48.788;9.772;2023-06-22T09:11:18;28.30;37.80
6206;DHT22;3136;48.788;9.772;2023-06-22T09:13:43;28.50;38.10
6206;DHT22;3136;48.788;9.772;2023-06-22T09:16:09;28.70;38.10
6206;DHT22;3136;48.788;9.772;2023-06-22T09:18:35;28.90;35.40
6206;DHT22;3136;48.788;9.772;2023-06-22T09:21:01;28.90;33.00
6206;DHT22;3136;48.788;9.772;2023-06-22T09:23:27;28.70;32.60
6206;DHT22;3136;48.788;9.772;2023-06-22T09:25:53;28.70;34.70
6206;DHT22;3136;48.788;9.772;2023-06-22T09:28:18;28.70;31.60
6206;DHT22;3136;48.788;9.772;2023-06-22T09:30:44;28.90;33.10
6206;DHT22;3136;48.788;9.772;2023-06-22T09:33:10;29.10;33.90
6206;DHT22;3136;48.788;9.772;2023-06-22T09:35:35;29.10;32.90
6206;DHT22;3136;48.788;9.772;2023-06-22T09:38:01;29.30;33.30
6206;DHT22;3136;48.788;9.772;2023-06-22T09:40:26;29.40;30.70
6206;DHT22;3136;48.788;9.772;2023-06-22T09:42:52;29.50;30.40
6206;DHT22;3136;48.788;9.772;2023-06-22T09:45:17;29.50;31.00
6206;DHT22;3136;48.788;9.772;2023-06-22T09:47:43;29.60;28.90
6206;DHT22;3136;48.788;9.772;2023-06-22T09:50:09;29.80;30.40
6206;DHT22;3136;48.788;9.772;2023-06-22T09:52:35;30.00;27.60
6206;DHT22;3136;48.788;9.772;2023-06-22T09:55:00;30.10;28.60
6206;DHT22;3136;48.788;9.772;2023-06-22T09:57:26;30.10;27.50
6206;DHT22;3136;48.788;9.772;2023-06-22T09:59:51;30.20;28.00
6206;DHT22;3136;48.788;9.772;2023-06-22T10:02:17;30.10;26.80
6206;DHT22;3136;48.788;9.772;2023-06-22T10:04:42;30.10;27.00
6206;DHT22;3136;48.788;9.772;2023-06-22T10:07:08;30.10;26.90
6206;DHT22;3136;48.788;9.772;2023-06-22T10:09:34;30.10;26.60
6206;DHT22;3136;48.788;9.772;2023-06-22T10:11:59;30.30;25.90
6206;DHT22;3136;48.788;9.772;2023-06-22T10:14:25;30.40;27.80
6206;DHT22;3136;48.788;9.772;2023-06-22T10:16:52;30.60;26.50
6206;DHT22;3136;48.788;9.772;2023-06-22T10:19:18;30.80;26.10
6206;DHT22;3136;48.788;9.772;2023-06-22T10:21:44;30.90;24.30
6206;DHT22;3136;48.788;9.772;2023-06-22T10:24:09;30.90;23.80
6206;DHT22;3136;48.788;9.772;2023-06-22T10:26:36;31.00;24.40
6206;DHT22;3136;48.788;9.772;2023-06-22T10:29:04;31.10;23.10
6206;DHT22;3136;48.788;9.772;2023-06-22T10:31:30;31.20;23.40
6206;DHT22;3136;48.788;9.772;2023-06-22T10:33:55;31.40;23.00
6206;DHT22;3136;48.788;9.772;2023-06-22T10:36:22;31.50;23.20
6206;DHT22;3136;48.788;9.772;2023-06-22T10:38:48;31.50;21.60
6206;DHT22;3136;48.788;9.772;2023-06-22T10:41:14;31.60;20.70
6206;DHT22;3136;48.788;9.772;2023-06-22T10:43:39;31.40;21.60
6206;DHT22;3136;48.788;9.772;2023-06-22T10:46:06;31.20;21.80
6206;DHT22;3136;48.788;9.772;2023-06-22T10:48:32;31.00;20.00
6206;DHT22;3136;48.788;9.772;2023-06-22T10:50:58;31.00;21.00
6206;DHT22;3136;48.788;9.772;2023-06-22T10:53:23;31.20;20.20
6206;DHT22;3136;48.788;9.772;2023-06-22T10:55:49;31.40;19.70
6206;DHT22;3136;48.788;9.772;2023-06-22T10:58:15;31.70;18.30
6206;DHT22;3136;48.788;9.772;2023-06-22T11:00:40;32.10;19.80
6206;DHT22;3136;48.788;9.772;2023-06-22T11:03:06;32.40;18.80
6206;DHT22;3136;48.788;9.772;2023-06-22T11:05:31;32.50;16.10
6206;DHT22;3136;48.788;9.772;2023-06-22T11:07:57;32.40;16.90
6206;DHT22;3136;48.788;9.772;2023-06-22T11:10:23;32.50;14.70
6206;DHT22;3136;48.788;9.772;2023-06-22T11:12:48;32.80;16.10
6206;DHT22;3136;48.788;9.772;2023-06-22T11:15:14;33.10;15.00
6206;DHT22;3136;48.788;9.772;2023-06-22T11:17:39;32.90;29.10
6206;DHT22;3136;48.788;9.772;2023-06-22T11:20:05;32.70;14.00
6206;DHT22;3136;48.788;9.772;2023-06-22T11:22:40;32.70;14.60
6206;DHT22;3136;48.788;9.772;2023-06-22T11:25:07;32.70;14.40
6206;DHT22;3136;48.788;9.772;2023-06-22T11:27:33;32.60;14.40
6206;DHT22;3136;48.788;9.772;2023-06-22T11:29:58;32.70;14.40
6206;DHT22;3136;48.788;9.772;2023-06-22T11:32:24;32.80;13.70
6206;DHT22;3136;48.788;9.772;2023-06-22T11:34:50;33.00;14.40
6206;DHT22;3136;48.788;9.772;2023-06-22T11:37:15;33.20;13.20
6206;DHT22;3136;48.788;9.772;2023-06-22T11:39:42;33.30;13.00
6206;DHT22;3136;48.788;9.772;2023-06-22T11:42:08;33.20;12.00
6206;DHT22;3136;48.788;9.772;2023-06-22T11:44:34;33.50;13.40
6206;DHT22;3136;48.788;9.772;2023-06-22T11:47:00;33.90;11.10
6206;DHT22;3136;48.788;9.772;2023-06-22T11:49:26;34.20;9.80
6206;DHT22;3136;48.788;9.772;2023-06-22T11:51:52;34.00;9.80
6206;DHT22;3136;48.788;9.772;2023-06-22T11:54:18;33.70;8.30
6206;DHT22;3136;48.788;9.772;2023-06-22T11:56:44;33.80;10.30
6206;DHT22;3136;48.788;9.772;2023-06-22T11:59:09;33.80;10.80
6206;DHT22;3136;48.788;9.772;2023-06-22T12:01:35;33.60;10.80
6206;DHT22;3136;48.788;9.772;2023-06-22T12:04:01;33.30;11.30
6206;DHT22;3136;48.788;9.772;2023-06-22T12:06:26;32.90;10.90
6206;DHT22;3136;48.788;9.772;2023-06-22T12:08:52;32.50;10.30
6206;DHT22;3136;48.788;9.772;2023-06-22T12:11:17;32.30;25.30
6206;DHT22;3136;48.788;9.772;2023-06-22T12:13:48;32.10;10.80
6206;DHT22;3136;48.788;9.772;2023-06-22T12:16:14;31.90;11.10
6206;DHT22;3136;48.788;9.772;2023-06-22T12:18:40;31.70;11.00
6206;DHT22;3136;48.788;9.772;2023-06-22T12:21:05;31.50;12.90
6206;DHT22;3136;48.788;9.772;2023-06-22T12:23:31;31.40;12.60
6206;DHT22;3136;48.788;9.772;2023-06-22T12:25:56;31.40;10.90
6206;DHT22;3136;48.788;9.772;2023-06-22T12:28:22;31.30;10.50
6206;DHT22;3136;48.788;9.772;2023-06-22T12:30:48;31.50;12.00
6206;DHT22;3136;48.788;9.772;2023-06-22T12:33:14;31.90;11.10
6206;DHT22;3136;48.788;9.772;2023-06-22T12:35:40;32.30;10.90
6206;DHT22;3136;48.788;9.772;2023-06-22T12:38:05;32.60;10.40
6206;DHT22;3136;48.788;9.772;2023-06-22T12:40:32;32.80;10.80
6206;DHT22;3136;48.788;9.772;2023-06-22T12:42:59;33.00;10.30
6206;DHT22;3136;48.788;9.772;2023-06-22T12:45:24;33.20;10.00
6206;DHT22;3136;48.788;9.772;2023-06-22T12:47:54;33.30;9.30
6206;DHT22;3136;48.788;9.772;2023-06-22T12:50:19;33.10;9.30
6206;DHT22;3136;48.788;9.772;2023-06-22T12:52:45;33.10;9.00
6206;DHT22;3136;48.788;9.772;2023-06-22T12:55:11;33.00;8.50
6206;DHT22;3136;48.788;9.772;2023-06-22T12:57:36;32.80;7.50
6206;DHT22;3136;48.788;9.772;2023-06-22T13:00:02;32.50;7.40
6206;DHT22;3136;48.788;9.772;2023-06-22T13:02:30;32.30;25.10
6206;DHT22;3136;48.788;9.772;2023-06-22T13:04:55;32.10;25.60
6206;DHT22;3136;48.788;9.772;2023-06-22T13:07:21;31.90;10.00
6206;DHT22;3136;48.788;9.772;2023-06-22T13:09:46;31.70;10.30
6206;DHT22;3136;48.788;9.772;2023-06-22T13:12:12;31.50;10.20
6206;DHT22;3136;48.788;9.772;2023-06-22T13:14:37;31.30;11.40
6206;DHT22;3136;48.788;9.772;2023-06-22T13:17:03;31.20;10.00
6206;DHT22;3136;48.788;9.772;2023-06-22T13:19:28;31.10;10.10
6206;DHT22;3136;48.788;9.772;2023-06-22T13:21:58;31.00;10.70
6206;DHT22;3136;48.788;9.772;2023-06-22T13:24:23;30.90;10.40
6206;DHT22;3136;48.788;9.772;2023-06-22T13:26:49;30.90;12.20
6206;DHT22;3136;48.788;9.772;2023-06-22T13:29:14;30.90;11.20
6206;DHT22;3136;48.788;9.772;2023-06-22T13:31:40;31.00;12.60
6206;DHT22;3136;48.788;9.772;2023-06-22T13:34:05;31.20;12.90
6206;DHT22;3136;48.788;9.772;2023-06-22T13:36:31;31.30;11.70
6206;DHT22;3136;48.788;9.772;2023-06-22T13:38:57;31.20;12.40
6206;DHT22;3136;48.788;9.772;2023-06-22T13:41:22;31.20;13.20
6206;DHT22;3136;48.788;9.772;2023-06-22T13:43:48;31.20;11.60
6206;DHT22;3136;48.788;9.772;2023-06-22T13:46:13;31.20;12.80
6206;DHT22;3136;48.788;9.772;2023-06-22T13:48:39;31.20;12.60
6206;DHT22;3136;48.788;9.772;2023-06-22T13:51:05;31.30;11.00
6206;DHT22;3136;48.788;9.772;2023-06-22T13:53:30;31.70;12.40
6206;DHT22;3136;48.788;9.772;2023-06-22T13:55:56;32.30;10.90
6206;DHT22;3136;48.788;9.772;2023-06-22T13:58:22;32.60;9.80
6206;DHT22;3136;48.788;9.772;2023-06-22T14:00:47;32.70;7.20
6206;DHT22;3136;48.788;9.772;2023-06-22T14:03:14;32.90;7.50
6206;DHT22;3136;48.788;9.772;2023-06-22T14:05:41;33.00;7.90
6206;DHT22;3136;48.788;9.772;2023-06-22T14:08:07;33.10;6.40
6206;DHT22;3136;48.788;9.772;2023-06-22T14:10:33;33.00;7.70
6206;DHT22;3136;48.788;9.772;2023-06-22T14:12:58;32.90;7.00
6206;DHT22;3136;48.788;9.772;2023-06-22T14:15:25;32.70;6.30
6206;DHT22;3136;48.788;9.772;2023-06-22T14:17:52;32.40;6.30
6206;DHT22;3136;48.788;9.772;2023-06-22T14:20:18;32.30;5.40
6206;DHT22;3136;48.788;9.772;2023-06-22T14:22:43;32.10;6.50
6206;DHT22;3136;48.788;9.772;2023-06-22T14:25:09;31.90;5.60
6206;DHT22;3136;48.788;9.772;2023-06-22T14:27:34;31.80;6.10
6206;DHT22;3136;48.788;9.772;2023-06-22T14:30:00;31.80;6.80
6206;DHT22;3136;48.788;9.772;2023-06-22T14:32:27;31.90;5.80
6206;DHT22;3136;48.788;9.772;2023-06-22T14:34:55;31.90;6.20
6206;DHT22;3136;48.788;9.772;2023-06-22T14:37:20;32.10;5.50
6206;DHT22;3136;48.788;9.772;2023-06-22T14:39:46;32.20;3.50
6206;DHT22;3136;48.788;9.772;2023-06-22T14:42:11;32.30;4.20
6206;DHT22;3136;48.788;9.772;2023-06-22T14:44:37;32.20;3.20
6206;DHT22;3136;48.788;9.772;2023-06-22T14:47:02;32.10;1.90
6206;DHT22;3136;48.788;9.772;2023-06-22T14:49:28;32.00;4.10
6206;DHT22;3136;48.788;9.772;2023-06-22T14:51:54;31.80;2.00
6206;DHT22;3136;48.788;9.772;2023-06-22T14:54:19;31.70;3.20
6206;DHT22;3136;48.788;9.772;2023-06-22T14:56:45;31.70;2.90
6206;DHT22;3136;48.788;9.772;2023-06-22T14:59:10;31.70;1.60
6206;DHT22;3136;48.788;9.772;2023-06-22T15:01:36;31.90;1.70
6206;DHT22;3136;48.788;9.772;2023-06-22T15:04:02;32.00;1.30
6206;DHT22;3136;48.788;9.772;2023-06-22T15:06:28;32.10;2.20
6206;DHT22;3136;48.788;9.772;2023-06-22T15:08:53;32.20;1.00
6206;DHT22;3136;48.788;9.772;2023-06-22T15:11:20;32.20;1.50
6206;DHT22;3136;48.788;9.772;2023-06-22T15:13:45;32.20;1.30
6206;DHT22;3136;48.788;9.772;2023-06-22T15:16:11;32.10;1.00
6206;DHT22;3136;48.788;9.772;2023-06-22T15:18:36;32.10;1.00
6206;DHT22;3136;48.788;9.772;2023-06-22T15:21:03;32.10;1.00
6206;DHT22;3136;48.788;9.772;2023-06-22T15:23:30;32.00;1.40
6206;DHT22;3136;48.788;9.772;2023-06-22T15:25:56;31.90;1.00
6206;DHT22;3136;48.788;9.772;2023-06-22T15:28:22;31.90;1.00
6206;DHT22;3136;48.788;9.772;2023-06-22T15:30:49;31.80;1.00
6206;DHT22;3136;48.788;9.772;2023-06-22T15:33:14;31.70;1.00
6206;DHT22;3136;48.788;9.772;2023-06-22T15:35:40;31.70;1.00
6206;DHT22;3136;48.788;9.772;2023-06-22T15:38:06;31.70;1.00
6206;DHT22;3136;48.788;9.772;2023-06-22T15:40:31;31.70;1.00
6206;DHT22;3136;48.788;9.772;2023-06-22T15:42:57;31.80;1.00
6206;DHT22;3136;48.788;9.772;2023-06-22T15:45:22;31.90;1.00
6206;DHT22;3136;48.788;9.772;2023-06-22T15:47:48;31.90;1.00
6206;DHT22;3136;48.788;9.772;2023-06-22T15:50:13;31.90;1.00
6206;DHT22;3136;48.788;9.772;2023-06-22T15:52:42;31.90;1.00
6206;DHT22;3136;48.788;9.772;2023-06-22T15:55:13;32.00;1.00
6206;DHT22;3136;48.788;9.772;2023-06-22T15:57:39;32.00;1.00
6206;DHT22;3136;48.788;9.772;2023-06-22T16:00:06;32.00;1.00
6206;DHT22;3136;48.788;9.772;2023-06-22T16:02:33;32.10;1.00
6206;DHT22;3136;48.788;9.772;2023-06-22T16:05:02;32.20;1.00